createdAt,value
2023-05-04T00:00:14.584Z,14.79
2023-05-04T00:01:14.614Z,14.92
2023-05-04T00:02:14.661Z,14.66
2023-05-04T00:03:14.767Z,14.49
2023-05-04T00:04:14.816Z,14.17
2023-05-04T00:05:14.726Z,14.19
2023-05-04T00:06:14.713Z,14.36
2023-05-04T00:07:14.724Z,14.32
2023-05-04T00:08:14.716Z,14.32
2023-05-04T00:09:14.680Z,14.31
2023-05-04T00:10:14.758Z,14.06
2023-05-04T00:11:14.831Z,14.15
2023-05-04T00:12:14.943Z,13.95
2023-05-04T00:13:15.070Z,14.00
2023-05-04T00:14:15.094Z,13.66
2023-05-04T00:15:15.181Z,13.71
2023-05-04T00:16:15.224Z,13.79
2023-05-04T00:17:15.209Z,13.86
2023-05-04T00:18:15.187Z,13.90
2023-05-04T00:19:15.192Z,13.68
2023-05-04T00:20:15.209Z,13.51
2023-05-04T00:21:15.213Z,13.52
2023-05-04T00:22:15.181Z,13.24
2023-05-04T00:23:15.210Z,13.28
2023-05-04T00:24:15.197Z,13.36
2023-05-04T00:25:15.196Z,13.20
2023-05-04T00:26:15.253Z,13.38
2023-05-04T00:27:15.325Z,13.21
2023-05-04T00:28:15.428Z,13.32
2023-05-04T00:29:15.499Z,13.23
2023-05-04T00:30:15.524Z,12.87
2023-05-04T00:31:15.515Z,13.24
2023-05-04T00:32:15.485Z,13.06
2023-05-04T00:33:15.487Z,12.96
2023-05-04T00:34:15.501Z,13.23
2023-05-04T00:35:15.551Z,12.99
2023-05-04T00:36:15.636Z,12.86
2023-05-04T00:37:15.614Z,12.60
2023-05-04T00:38:15.601Z,12.75
2023-05-04T00:39:15.597Z,12.44
2023-05-04T00:40:15.572Z,12.54
2023-05-04T00:41:15.648Z,12.44
2023-05-04T00:42:15.714Z,12.13
2023-05-04T00:43:15.744Z,12.53
2023-05-04T00:44:15.749Z,12.60
2023-05-04T00:45:15.766Z,12.39
2023-05-04T00:46:15.816Z,12.55
2023-05-04T00:47:16.003Z,12.20
2023-05-04T00:48:15.968Z,12.01
2023-05-04T00:49:16.053Z,12.02
2023-05-04T00:50:16.087Z,11.88
2023-05-04T00:51:16.131Z,11.96
2023-05-04T00:52:16.224Z,11.78
2023-05-04T00:53:16.246Z,11.69
2023-05-04T00:54:16.320Z,11.77
2023-05-04T00:55:16.365Z,11.55
2023-05-04T00:56:16.428Z,11.94
2023-05-04T00:57:16.464Z,11.30
2023-05-04T00:58:16.522Z,11.65
2023-05-04T00:59:16.589Z,11.35
2023-05-04T01:00:16.620Z,11.17
2023-05-04T01:01:16.701Z,11.06
2023-05-04T01:02:16.712Z,10.98
2023-05-04T01:03:16.853Z,11.10
2023-05-04T01:04:16.803Z,11.17
2023-05-04T01:05:16.882Z,11.27
2023-05-04T01:06:16.916Z,10.81
2023-05-04T01:07:16.950Z,10.74
2023-05-04T01:08:17.007Z,10.93
2023-05-04T01:09:17.019Z,11.03
2023-05-04T01:10:17.067Z,10.96
2023-05-04T01:11:17.100Z,10.93
2023-05-04T01:12:17.115Z,10.87
2023-05-04T01:13:17.278Z,10.91
2023-05-04T01:14:17.173Z,10.64
2023-05-04T01:15:17.207Z,10.27
2023-05-04T01:16:17.305Z,10.48
2023-05-04T01:17:17.293Z,10.54
2023-05-04T01:18:17.327Z,10.64
2023-05-04T01:19:17.356Z,10.49
2023-05-04T01:20:17.405Z,10.42
2023-05-04T01:21:17.412Z,10.60
2023-05-04T01:22:17.486Z,10.24
2023-05-04T01:23:17.534Z,10.24
2023-05-04T01:24:17.536Z,10.44
2023-05-04T01:25:17.592Z,10.49
2023-05-04T01:26:17.587Z,10.33
2023-05-04T01:27:17.640Z,10.52
2023-05-04T01:28:17.685Z,10.20
2023-05-04T01:29:17.731Z,10.21
2023-05-04T01:30:17.721Z,10.31
2023-05-04T01:31:17.786Z,10.15
2023-05-04T01:32:17.892Z,10.06
2023-05-04T01:33:17.879Z,10.17
2023-05-04T01:34:17.894Z,10.03
2023-05-04T01:35:17.885Z,9.86
2023-05-04T01:36:17.933Z,10.09
2023-05-04T01:37:17.936Z,10.03
2023-05-04T01:38:18.016Z,9.87
2023-05-04T01:39:18.055Z,10.04
2023-05-04T01:40:18.049Z,9.79
2023-05-04T01:41:18.127Z,9.96
2023-05-04T01:42:18.146Z,9.80
2023-05-04T01:43:18.178Z,9.63
2023-05-04T01:44:18.201Z,9.83
2023-05-04T01:45:18.226Z,9.93
2023-05-04T01:46:18.272Z,9.62
2023-05-04T01:47:18.301Z,9.76
2023-05-04T01:48:18.339Z,9.74
2023-05-04T01:49:18.387Z,9.57
2023-05-04T01:50:18.422Z,9.63
2023-05-04T01:51:18.436Z,9.42
2023-05-04T01:52:18.458Z,9.62
2023-05-04T01:53:18.493Z,9.24
2023-05-04T01:54:18.530Z,9.32
2023-05-04T01:55:18.568Z,9.51
2023-05-04T01:56:18.592Z,9.55
2023-05-04T01:57:18.592Z,9.39
2023-05-04T01:58:18.688Z,9.41
2023-05-04T01:59:18.753Z,9.43
2023-05-04T02:00:18.725Z,9.35
2023-05-04T02:01:18.766Z,9.32
2023-05-04T02:02:18.737Z,9.19
2023-05-04T02:03:18.830Z,9.24
2023-05-04T02:04:18.945Z,8.98
2023-05-04T02:05:18.837Z,8.97
2023-05-04T02:06:18.849Z,9.26
2023-05-04T02:07:18.884Z,9.05
2023-05-04T02:08:18.949Z,8.94
2023-05-04T02:09:18.965Z,8.93
2023-05-04T02:10:18.974Z,8.99
2023-05-04T02:11:18.986Z,8.99
2023-05-04T02:12:19.017Z,8.75
2023-05-04T02:13:19.044Z,8.94
2023-05-04T02:14:19.075Z,8.88
2023-05-04T02:15:19.099Z,8.95
2023-05-04T02:16:19.165Z,8.88
2023-05-04T02:17:19.172Z,8.92
2023-05-04T02:18:19.172Z,8.70
2023-05-04T02:19:19.239Z,8.81
2023-05-04T02:20:19.235Z,8.49
2023-05-04T02:21:19.249Z,8.77
2023-05-04T02:22:19.294Z,8.63
2023-05-04T02:23:19.323Z,8.50
2023-05-04T02:24:19.310Z,8.59
2023-05-04T02:25:19.296Z,8.65
2023-05-04T02:26:19.272Z,8.59
2023-05-04T02:27:19.294Z,8.53
2023-05-04T02:28:19.364Z,8.45
2023-05-04T02:29:19.414Z,8.48
2023-05-04T02:30:19.372Z,8.42
2023-05-04T02:31:19.418Z,8.43
2023-05-04T02:32:19.422Z,8.12
2023-05-04T02:33:19.428Z,8.28
2023-05-04T02:34:19.436Z,8.25
2023-05-04T02:35:19.452Z,8.30
2023-05-04T02:36:19.496Z,8.23
2023-05-04T02:37:19.458Z,8.47
2023-05-04T02:38:19.505Z,8.23
2023-05-04T02:39:19.522Z,8.18
2023-05-04T02:40:19.518Z,8.27
2023-05-04T02:41:19.516Z,8.09
2023-05-04T02:42:19.594Z,8.10
2023-05-04T02:43:19.568Z,8.11
2023-05-04T02:44:19.655Z,8.02
2023-05-04T02:45:19.585Z,8.17
2023-05-04T02:46:19.685Z,7.83
2023-05-04T02:47:19.632Z,7.86
2023-05-04T02:48:19.654Z,8.02
2023-05-04T02:49:19.653Z,7.91
2023-05-04T02:50:19.655Z,7.75
2023-05-04T02:51:19.684Z,7.90
2023-05-04T02:52:19.704Z,7.81
2023-05-04T02:53:19.718Z,7.90
2023-05-04T02:54:19.704Z,7.93
2023-05-04T02:55:19.733Z,7.67
2023-05-04T02:56:19.743Z,7.82
2023-05-04T02:57:19.749Z,7.77
2023-05-04T02:58:19.809Z,7.51
2023-05-04T02:59:19.770Z,7.61
2023-05-04T03:00:19.818Z,7.50
2023-05-04T03:01:19.836Z,7.62
2023-05-04T03:02:19.820Z,7.49
2023-05-04T03:03:19.877Z,7.59
2023-05-04T03:04:19.933Z,7.60
2023-05-04T03:05:19.928Z,7.29
2023-05-04T03:06:19.908Z,7.49
2023-05-04T03:07:19.935Z,7.51
2023-05-04T03:08:19.929Z,7.34
2023-05-04T03:09:19.922Z,7.44
2023-05-04T03:10:19.943Z,7.57
2023-05-04T03:11:19.937Z,7.46
2023-05-04T03:12:19.961Z,7.47
2023-05-04T03:13:19.976Z,7.44
2023-05-04T03:14:20.019Z,7.34
2023-05-04T03:15:20.028Z,7.07
2023-05-04T03:16:20.092Z,7.40
2023-05-04T03:17:20.040Z,7.14
2023-05-04T03:18:20.045Z,7.18
2023-05-04T03:19:20.060Z,7.26
2023-05-04T03:20:20.038Z,7.24
2023-05-04T03:21:20.068Z,6.93
2023-05-04T03:22:20.075Z,7.16
2023-05-04T03:23:20.095Z,6.96
2023-05-04T03:24:20.102Z,7.14
2023-05-04T03:25:20.099Z,7.05
2023-05-04T03:26:20.085Z,6.98
2023-05-04T03:27:20.092Z,6.88
2023-05-04T03:28:20.088Z,6.98
2023-05-04T03:29:20.126Z,7.01
2023-05-04T03:30:20.131Z,6.90
2023-05-04T03:31:20.182Z,7.02
2023-05-04T03:32:20.139Z,7.01
2023-05-04T03:33:20.123Z,6.96
2023-05-04T03:34:20.161Z,6.92
2023-05-04T03:35:24.762Z,6.90
2023-05-04T03:36:21.130Z,6.91
2023-05-04T03:37:20.125Z,6.92
2023-05-04T03:38:20.116Z,6.92
2023-05-04T03:39:20.117Z,6.88
2023-05-04T03:40:20.136Z,6.88
2023-05-04T03:41:20.111Z,6.84
2023-05-04T03:42:20.096Z,6.81
2023-05-04T03:43:20.097Z,6.75
2023-05-04T03:44:20.137Z,6.66
2023-05-04T03:45:20.073Z,6.72
2023-05-04T03:46:20.103Z,6.62
2023-05-04T03:47:20.079Z,6.80
2023-05-04T03:48:20.067Z,6.57
2023-05-04T03:49:20.048Z,6.52
2023-05-04T03:50:20.076Z,6.35
2023-05-04T03:51:20.097Z,6.58
2023-05-04T03:52:20.037Z,6.60
2023-05-04T03:53:20.045Z,6.44
2023-05-04T03:54:20.023Z,6.51
2023-05-04T03:55:20.024Z,6.31
2023-05-04T03:56:19.997Z,6.38
2023-05-04T03:57:20.010Z,6.47
2023-05-04T03:58:19.962Z,6.35
2023-05-04T03:59:19.973Z,6.31
2023-05-04T04:00:20.004Z,6.30
2023-05-04T04:01:20.002Z,6.47
2023-05-04T04:02:19.969Z,6.29
2023-05-04T04:03:20.086Z,6.12
2023-05-04T04:04:19.980Z,6.33
2023-05-04T04:05:19.981Z,6.21
2023-05-04T04:06:19.936Z,6.35
2023-05-04T04:07:19.976Z,6.26
2023-05-04T04:08:19.915Z,6.09
2023-05-04T04:09:19.906Z,6.22
2023-05-04T04:10:19.872Z,6.14
2023-05-04T04:11:19.891Z,6.01
2023-05-04T04:12:19.870Z,5.96
2023-05-04T04:13:20.026Z,6.13
2023-05-04T04:14:19.851Z,6.05
2023-05-04T04:15:19.836Z,6.01
2023-05-04T04:16:19.910Z,6.00
2023-05-04T04:17:19.831Z,6.06
2023-05-04T04:18:19.842Z,6.07
2023-05-04T04:19:19.822Z,6.06
2023-05-04T04:20:19.822Z,5.90
2023-05-04T04:21:19.815Z,6.02
2023-05-04T04:22:19.801Z,5.81
2023-05-04T04:23:19.840Z,5.82
2023-05-04T04:24:19.824Z,5.69
2023-05-04T04:25:19.809Z,5.81
2023-05-04T04:26:19.834Z,5.73
2023-05-04T04:27:19.838Z,5.76
2023-05-04T04:28:19.826Z,5.69
2023-05-04T04:29:19.822Z,5.77
2023-05-04T04:30:19.818Z,5.91
2023-05-04T04:31:19.864Z,5.80
2023-05-04T04:32:19.788Z,5.72
2023-05-04T04:33:19.790Z,5.64
2023-05-04T04:34:19.798Z,5.82
2023-05-04T04:35:19.801Z,5.63
2023-05-04T04:36:19.813Z,5.58
2023-05-04T04:37:19.785Z,5.69
2023-05-04T04:38:19.801Z,5.68
2023-05-04T04:39:19.933Z,5.63
2023-05-04T04:40:19.845Z,5.68
2023-05-04T04:41:19.813Z,5.71
2023-05-04T04:42:19.841Z,5.47
2023-05-04T04:43:19.788Z,5.55
2023-05-04T04:44:19.809Z,5.43
2023-05-04T04:45:19.802Z,5.44
2023-05-04T04:46:19.875Z,5.51
2023-05-04T04:47:19.803Z,5.43
2023-05-04T04:48:19.806Z,5.41
2023-05-04T04:49:19.814Z,5.45
2023-05-04T04:50:19.806Z,5.47
2023-05-04T04:51:19.779Z,5.37
2023-05-04T04:52:19.778Z,5.39
2023-05-04T04:53:19.807Z,5.44
2023-05-04T04:54:19.784Z,5.36
2023-05-04T04:55:19.800Z,5.27
2023-05-04T04:56:19.782Z,5.40
2023-05-04T04:57:19.780Z,5.28
2023-05-04T04:58:19.794Z,5.29
2023-05-04T04:59:19.814Z,5.23
2023-05-04T05:00:19.800Z,5.21
2023-05-04T05:01:19.900Z,5.20
2023-05-04T05:02:19.816Z,5.24
2023-05-04T05:03:19.809Z,5.18
2023-05-04T05:04:19.851Z,5.26
2023-05-04T05:05:19.830Z,5.23
2023-05-04T05:06:19.844Z,5.30
2023-05-04T05:07:19.828Z,5.14
2023-05-04T05:08:19.840Z,4.97
2023-05-04T05:09:19.847Z,5.05
2023-05-04T05:10:20.031Z,5.23
2023-05-04T05:11:19.860Z,5.14
2023-05-04T05:12:19.859Z,5.07
2023-05-04T05:13:19.875Z,5.21
2023-05-04T05:14:19.820Z,5.05
2023-05-04T05:15:19.842Z,5.10
2023-05-04T05:16:19.883Z,5.12
2023-05-04T05:17:19.811Z,5.04
2023-05-04T05:18:19.809Z,5.03
2023-05-04T05:19:19.812Z,4.96
2023-05-04T05:20:19.830Z,5.00
2023-05-04T05:21:19.821Z,4.95
2023-05-04T05:22:19.846Z,4.99
2023-05-04T05:23:19.872Z,5.11
2023-05-04T05:24:19.911Z,4.94
2023-05-04T05:25:19.817Z,4.97
2023-05-04T05:26:19.821Z,4.95
2023-05-04T05:27:19.890Z,4.89
2023-05-04T05:28:19.810Z,4.90
2023-05-04T05:29:19.817Z,4.90
2023-05-04T05:30:20.043Z,4.96
2023-05-04T05:31:19.872Z,4.94
2023-05-04T05:32:19.821Z,4.85
2023-05-04T05:33:19.845Z,4.84
2023-05-04T05:34:19.866Z,4.89
2023-05-04T05:35:20.037Z,4.52
2023-05-04T05:36:19.989Z,4.35
2023-05-04T05:37:19.932Z,4.06
2023-05-04T05:38:20.018Z,3.79
2023-05-04T05:39:20.111Z,3.77
2023-05-04T05:40:20.526Z,3.59
2023-05-04T05:41:20.225Z,3.45
2023-05-04T05:42:20.235Z,3.53
2023-05-04T05:43:20.307Z,3.68
2023-05-04T05:44:20.300Z,3.64
2023-05-04T05:45:27.572Z,3.55
2023-05-04T05:46:20.389Z,3.33
2023-05-04T05:47:20.324Z,3.06
2023-05-04T05:48:20.303Z,2.68
2023-05-04T05:49:20.294Z,2.67
2023-05-04T05:50:20.317Z,2.65
2023-05-04T05:51:20.285Z,2.72
2023-05-04T05:52:20.272Z,2.74
2023-05-04T05:53:20.285Z,2.54
2023-05-04T05:54:20.260Z,2.79
2023-05-04T05:55:20.227Z,2.93
2023-05-04T05:56:20.258Z,3.01
2023-05-04T05:57:20.247Z,2.99
2023-05-04T05:58:20.273Z,3.07
2023-05-04T05:59:20.596Z,3.16
2023-05-04T06:00:20.191Z,3.12
2023-05-04T06:01:20.192Z,2.59
2023-05-04T06:02:20.353Z,2.77
2023-05-04T06:03:20.293Z,2.81
2023-05-04T06:04:20.202Z,2.61
2023-05-04T06:05:20.194Z,2.46
2023-05-04T06:06:20.231Z,2.48
2023-05-04T06:07:20.149Z,2.75
2023-05-04T06:08:20.165Z,3.00
2023-05-04T06:09:20.136Z,3.31
2023-05-04T06:10:20.140Z,3.02
2023-05-04T06:11:20.171Z,3.15
2023-05-04T06:12:20.211Z,3.04
2023-05-04T06:13:20.303Z,3.03
2023-05-04T06:14:20.328Z,3.06
2023-05-04T06:15:20.340Z,2.92
2023-05-04T06:16:20.404Z,2.87
2023-05-04T06:17:20.410Z,3.02
2023-05-04T06:18:20.473Z,2.99
2023-05-04T06:19:20.466Z,3.16
2023-05-04T06:20:20.516Z,3.47
2023-05-04T06:21:20.563Z,3.47
2023-05-04T06:22:20.561Z,3.54
2023-05-04T06:23:20.607Z,3.60
2023-05-04T06:24:20.645Z,2.98
2023-05-04T06:25:20.679Z,2.89
2023-05-04T06:26:20.705Z,2.68
2023-05-04T06:27:22.184Z,2.87
2023-05-04T06:28:20.733Z,2.81
2023-05-04T06:29:20.769Z,2.96
2023-05-04T06:30:20.828Z,3.19
2023-05-04T06:31:20.884Z,3.10
2023-05-04T06:32:20.867Z,3.14
2023-05-04T06:33:20.937Z,3.00
2023-05-04T06:34:20.921Z,3.04
2023-05-04T06:35:20.966Z,3.27
2023-05-04T06:36:21.029Z,3.35
2023-05-04T06:37:21.005Z,3.04
2023-05-04T06:38:21.054Z,2.86
2023-05-04T06:39:21.104Z,2.97
2023-05-04T06:40:21.128Z,2.88
2023-05-04T06:41:21.647Z,2.57
2023-05-04T06:42:21.232Z,2.65
2023-05-04T06:43:21.262Z,3.13
2023-05-04T06:44:21.298Z,3.09
2023-05-04T06:45:21.323Z,3.10
2023-05-04T06:46:21.486Z,2.94
2023-05-04T06:47:21.389Z,2.76
2023-05-04T06:48:21.392Z,2.96
2023-05-04T06:49:21.434Z,2.93
2023-05-04T06:50:21.480Z,3.26
2023-05-04T06:51:21.584Z,3.34
2023-05-04T06:52:21.583Z,3.68
2023-05-04T06:53:21.558Z,3.90
2023-05-04T06:54:21.600Z,4.04
2023-05-04T06:55:21.630Z,4.05
2023-05-04T06:56:21.672Z,3.97
2023-05-04T06:57:21.654Z,3.77
2023-05-04T06:58:21.703Z,3.94
2023-05-04T06:59:21.719Z,4.01
2023-05-04T07:00:21.711Z,4.10
2023-05-04T07:01:21.819Z,4.07
2023-05-04T07:02:21.754Z,4.24
2023-05-04T07:03:21.828Z,4.18
2023-05-04T07:04:21.788Z,4.27
2023-05-04T07:05:21.794Z,4.08
2023-05-04T07:06:21.826Z,4.00
2023-05-04T07:07:21.804Z,3.67
2023-05-04T07:08:21.819Z,3.98
2023-05-04T07:09:21.876Z,4.22
2023-05-04T07:10:21.810Z,4.29
2023-05-04T07:11:21.809Z,4.26
2023-05-04T07:12:21.838Z,4.37
2023-05-04T07:13:21.843Z,4.34
2023-05-04T07:14:21.862Z,4.46
2023-05-04T07:15:21.864Z,4.42
2023-05-04T07:16:22.089Z,4.53
2023-05-04T07:17:21.987Z,4.50
2023-05-04T07:18:21.873Z,4.63
2023-05-04T07:19:21.869Z,4.80
2023-05-04T07:20:24.231Z,4.80
2023-05-04T07:21:28.232Z,4.87
2023-05-04T07:22:22.883Z,4.88
2023-05-04T07:23:21.882Z,4.92
2023-05-04T07:24:21.871Z,4.95
2023-05-04T07:25:21.880Z,5.07
2023-05-04T07:26:22.135Z,4.92
2023-05-04T07:27:21.865Z,5.12
2023-05-04T07:28:21.829Z,5.34
2023-05-04T07:29:21.846Z,4.96
2023-05-04T07:30:21.876Z,4.79
2023-05-04T07:31:21.831Z,4.71
2023-05-04T07:32:21.958Z,4.44
2023-05-04T07:33:21.861Z,4.38
2023-05-04T07:34:25.299Z,3.99
2023-05-04T07:35:22.865Z,3.72
2023-05-04T07:36:21.796Z,3.78
2023-05-04T07:37:22.099Z,3.69
2023-05-04T07:38:21.756Z,3.53
2023-05-04T07:39:21.776Z,3.64
2023-05-04T07:41:06.377Z,0.50
2023-05-04T07:42:06.364Z,0.50
2023-05-04T07:43:06.360Z,0.50
2023-05-04T07:44:06.337Z,0.50
2023-05-04T07:45:06.349Z,0.50
2023-05-04T07:46:06.423Z,0.48
2023-05-04T07:47:06.402Z,0.38
2023-05-04T07:48:06.437Z,0.55
2023-05-04T07:49:06.447Z,0.52
2023-05-04T07:50:06.606Z,0.54
2023-05-04T07:51:06.450Z,0.57
2023-05-04T07:52:06.461Z,0.56
2023-05-04T07:53:07.096Z,0.57
2023-05-04T07:54:06.555Z,0.57
2023-05-04T07:55:06.631Z,0.54
2023-05-04T07:56:06.653Z,0.56
2023-05-04T07:57:06.737Z,0.55
2023-05-04T07:58:06.758Z,0.55
2023-05-04T07:59:06.823Z,0.51
2023-05-04T08:00:07.059Z,0.78
2023-05-04T08:01:06.994Z,0.90
2023-05-04T08:02:07.148Z,0.84
2023-05-04T08:03:07.131Z,0.79
2023-05-04T08:04:07.122Z,0.55
2023-05-04T08:05:07.187Z,0.56
2023-05-04T08:06:07.298Z,0.63
2023-05-04T08:07:07.321Z,0.61
2023-05-04T08:08:07.378Z,0.56
2023-05-04T08:09:07.484Z,0.53
2023-05-04T08:10:07.497Z,0.53
2023-05-04T08:11:19.371Z,0.51
2023-05-04T08:12:08.526Z,0.51
2023-05-04T08:13:07.593Z,0.51
2023-05-04T08:14:07.514Z,0.50
2023-05-04T08:15:07.505Z,0.52
2023-05-04T08:16:07.479Z,0.53
2023-05-04T08:17:07.499Z,0.51
2023-05-04T08:18:07.539Z,0.53
2023-05-04T08:19:07.483Z,0.52
2023-05-04T08:20:07.462Z,0.53
2023-05-04T08:21:07.462Z,0.51
2023-05-04T08:22:07.605Z,0.52
2023-05-04T08:23:07.619Z,0.52
2023-05-04T08:24:07.596Z,0.53
2023-05-04T08:25:08.083Z,0.53
2023-05-04T08:26:07.654Z,0.52
2023-05-04T08:27:09.792Z,0.51
2023-05-04T08:28:07.767Z,0.52
2023-05-04T08:29:07.825Z,0.54
2023-05-04T08:30:07.844Z,0.53
2023-05-04T08:31:07.916Z,0.55
2023-05-04T08:32:08.118Z,0.56
2023-05-04T08:33:08.034Z,0.58
2023-05-04T08:34:08.001Z,0.66
2023-05-04T08:35:08.110Z,0.67
2023-05-04T08:36:08.079Z,0.65
2023-05-04T08:37:08.636Z,0.65
2023-05-04T08:38:08.171Z,0.68
2023-05-04T08:39:08.279Z,0.64
2023-05-04T08:40:08.282Z,0.53
2023-05-04T08:41:08.330Z,0.49
2023-05-04T08:42:08.388Z,0.46
2023-05-04T08:43:08.389Z,0.47
2023-05-04T08:44:08.408Z,0.51
2023-05-04T08:45:08.363Z,0.50
2023-05-04T08:46:08.441Z,0.52
2023-05-04T08:47:08.422Z,0.50
2023-05-04T08:48:08.606Z,0.52
2023-05-04T08:49:08.388Z,0.52
2023-05-04T08:50:08.443Z,0.52
2023-05-04T08:51:08.432Z,0.52
2023-05-04T08:52:08.627Z,0.55
2023-05-04T08:53:08.441Z,0.44
2023-05-04T08:54:08.414Z,0.51
2023-05-04T08:55:08.436Z,0.68
2023-05-04T08:56:08.433Z,0.85
2023-05-04T08:57:08.632Z,0.86
2023-05-04T08:58:08.523Z,0.85
2023-05-04T08:59:08.615Z,0.85
2023-05-04T09:00:08.673Z,0.85
2023-05-04T09:01:08.850Z,0.94
2023-05-04T09:02:09.189Z,0.88
2023-05-04T09:03:08.900Z,0.90
2023-05-04T09:04:08.994Z,0.95
2023-05-04T09:05:08.900Z,1.01
2023-05-04T09:06:08.960Z,1.07
2023-05-04T09:07:08.964Z,1.05
2023-05-04T09:08:09.009Z,1.10
2023-05-04T09:09:09.045Z,1.11
2023-05-04T09:10:09.103Z,1.14
2023-05-04T09:11:09.126Z,1.19
2023-05-04T09:12:09.625Z,1.18
2023-05-04T09:13:09.223Z,1.30
2023-05-04T09:14:09.223Z,1.30
2023-05-04T09:15:09.262Z,1.33
2023-05-04T09:16:09.243Z,1.38
2023-05-04T09:17:09.345Z,1.42
2023-05-04T09:18:09.310Z,1.46
2023-05-04T09:19:09.298Z,1.51
2023-05-04T09:20:09.318Z,1.48
2023-05-04T09:21:09.298Z,1.52
2023-05-04T09:22:09.319Z,1.55
2023-05-04T09:23:09.355Z,1.58
2023-05-04T09:24:09.332Z,1.49
2023-05-04T09:25:09.325Z,1.56
2023-05-04T09:26:09.371Z,1.54
2023-05-04T09:27:09.372Z,1.57
2023-05-04T09:28:09.637Z,1.58
2023-05-04T09:29:09.407Z,1.67
2023-05-04T09:30:09.378Z,1.76
2023-05-04T09:31:09.413Z,1.81
2023-05-04T09:32:09.392Z,1.99
2023-05-04T09:33:09.432Z,2.14
2023-05-04T09:34:09.403Z,2.19
2023-05-04T09:35:10.743Z,2.29
2023-05-04T09:36:09.385Z,2.27
2023-05-04T09:37:09.375Z,2.34
2023-05-04T09:38:09.630Z,2.46
2023-05-04T09:39:11.161Z,2.72
2023-05-04T09:40:09.372Z,2.72
2023-05-04T09:41:09.363Z,2.79
2023-05-04T09:42:09.353Z,2.97
2023-05-04T09:43:09.421Z,3.22
2023-05-04T09:44:09.321Z,3.79
2023-05-04T09:45:09.412Z,3.51
2023-05-04T09:46:09.317Z,3.05
2023-05-04T09:47:09.315Z,3.55
2023-05-04T09:48:09.328Z,3.58
2023-05-04T09:49:09.282Z,3.73
2023-05-04T09:50:09.299Z,3.82
2023-05-04T09:51:09.286Z,4.12
2023-05-04T09:52:09.347Z,4.29
2023-05-04T09:53:09.285Z,4.31
2023-05-04T09:54:09.296Z,4.43
2023-05-04T09:55:09.279Z,4.44
2023-05-04T09:56:09.251Z,3.24
2023-05-04T09:57:09.246Z,3.78
2023-05-04T09:58:09.265Z,3.92
2023-05-04T09:59:09.270Z,3.75
2023-05-04T10:00:09.235Z,3.80
2023-05-04T10:01:11.214Z,3.89
2023-05-04T10:02:18.643Z,3.88
2023-05-04T10:03:10.318Z,3.78
2023-05-04T10:04:09.213Z,3.56
2023-05-04T10:05:09.249Z,3.24
2023-05-04T10:06:09.418Z,3.17
2023-05-04T10:07:09.200Z,2.98
2023-05-04T10:08:09.887Z,2.73
2023-05-04T10:09:09.360Z,2.66
2023-05-04T10:10:09.176Z,2.41
2023-05-04T10:11:09.205Z,2.36
2023-05-04T10:12:09.208Z,2.41
2023-05-04T10:13:09.690Z,2.35
2023-05-04T10:14:09.149Z,2.33
2023-05-04T10:15:09.145Z,2.07
2023-05-04T10:16:09.139Z,1.93
2023-05-04T10:17:09.159Z,1.37
2023-05-04T10:18:09.162Z,1.43
2023-05-04T10:19:09.112Z,1.48
2023-05-04T10:20:09.134Z,1.43
2023-05-04T10:21:09.125Z,1.38
2023-05-04T10:22:09.107Z,1.26
2023-05-04T10:23:09.142Z,1.24
2023-05-04T10:24:09.112Z,1.26
2023-05-04T10:25:09.104Z,1.20
2023-05-04T10:26:09.116Z,1.20
2023-05-04T10:27:09.119Z,1.15
2023-05-04T10:28:09.154Z,1.20
2023-05-04T10:29:09.068Z,1.17
2023-05-04T10:30:09.772Z,1.13
2023-05-04T10:31:09.251Z,1.02
2023-05-04T10:32:09.093Z,0.90
2023-05-04T10:33:09.098Z,0.88
2023-05-04T10:34:09.098Z,0.87
2023-05-04T10:35:09.114Z,0.88
2023-05-04T10:36:09.135Z,0.82
2023-05-04T10:37:09.129Z,0.73
2023-05-04T10:38:09.701Z,0.60
2023-05-04T10:39:09.173Z,0.57
2023-05-04T10:40:09.210Z,0.56
2023-05-04T10:41:09.249Z,0.65
2023-05-04T10:42:09.250Z,0.79
2023-05-04T10:43:09.681Z,0.71
2023-05-04T10:44:09.423Z,0.81
2023-05-04T10:45:09.344Z,0.85
2023-05-04T10:46:09.358Z,0.89
2023-05-04T10:47:09.450Z,0.91
2023-05-04T10:48:09.907Z,0.93
2023-05-04T10:49:09.409Z,1.03
2023-05-04T10:50:09.378Z,1.09
2023-05-04T10:51:09.393Z,1.16
2023-05-04T10:52:09.368Z,1.28
2023-05-04T10:53:09.446Z,1.41
2023-05-04T10:54:09.339Z,1.54
2023-05-04T10:55:09.416Z,1.60
2023-05-04T10:56:09.368Z,1.51
2023-05-04T10:57:09.374Z,1.63
2023-05-04T10:58:09.702Z,0.97
2023-05-04T10:59:09.431Z,0.94
2023-05-04T11:00:09.458Z,1.22
2023-05-04T11:01:09.448Z,1.23
2023-05-04T11:02:09.498Z,1.17
2023-05-04T11:03:09.607Z,1.20
2023-05-04T11:04:09.425Z,1.20
2023-05-04T11:05:09.413Z,1.15
2023-05-04T11:06:09.428Z,1.14
2023-05-04T11:07:09.413Z,1.07
2023-05-04T11:08:09.445Z,0.96
2023-05-04T11:09:09.455Z,0.49
2023-05-04T11:10:09.482Z,0.72
2023-05-04T11:11:09.469Z,0.72
2023-05-04T11:12:09.420Z,0.53
2023-05-04T11:13:09.468Z,0.73
2023-05-04T11:14:09.434Z,0.97
2023-05-04T11:15:09.447Z,1.07
2023-05-04T11:16:09.423Z,1.07
2023-05-04T11:17:26.193Z,1.06
2023-05-04T11:18:10.459Z,0.98
2023-05-04T11:19:09.461Z,0.92
2023-05-04T11:20:09.385Z,0.85
2023-05-04T11:21:09.394Z,0.84
2023-05-04T11:22:09.369Z,0.83
2023-05-04T11:23:09.444Z,0.88
2023-05-04T11:24:09.375Z,0.87
2023-05-04T11:25:09.383Z,0.91
2023-05-04T11:26:09.474Z,1.07
2023-05-04T11:27:09.378Z,1.31
2023-05-04T11:28:09.338Z,1.55
2023-05-04T11:29:09.682Z,1.56
2023-05-04T11:30:09.342Z,1.61
2023-05-04T11:31:09.380Z,1.71
2023-05-04T11:32:09.292Z,2.00
2023-05-04T11:33:09.336Z,2.43
2023-05-04T11:34:09.684Z,2.55
2023-05-04T11:35:09.380Z,2.74
2023-05-04T11:36:09.282Z,2.88
2023-05-04T11:37:09.289Z,3.04
2023-05-04T11:38:09.276Z,3.14
2023-05-04T11:39:09.252Z,3.26
2023-05-04T11:40:09.280Z,3.43
2023-05-04T11:41:09.215Z,3.49
2023-05-04T11:42:09.235Z,3.55
2023-05-04T11:43:09.234Z,3.75
2023-05-04T11:44:09.238Z,3.92
2023-05-04T11:45:09.220Z,3.91
2023-05-04T11:46:09.266Z,4.05
2023-05-04T11:47:09.212Z,4.24
2023-05-04T11:48:09.274Z,4.15
2023-05-04T11:49:09.205Z,4.26
2023-05-04T11:50:09.181Z,4.30
2023-05-04T11:51:09.184Z,4.38
2023-05-04T11:52:09.176Z,4.35
2023-05-04T11:53:09.409Z,4.44
2023-05-04T11:54:09.164Z,4.47
2023-05-04T11:55:09.365Z,4.62
2023-05-04T11:56:09.232Z,4.56
2023-05-04T11:57:09.123Z,4.50
2023-05-04T11:58:09.134Z,4.65
2023-05-04T11:59:09.144Z,4.53
2023-05-04T12:00:09.127Z,4.56
2023-05-04T12:01:09.117Z,4.60
2023-05-04T12:02:09.096Z,4.68
2023-05-04T12:03:09.170Z,4.77
2023-05-04T12:04:09.264Z,4.77
2023-05-04T12:05:09.201Z,4.80
2023-05-04T12:06:09.076Z,4.87
2023-05-04T12:07:09.128Z,4.74
2023-05-04T12:08:09.075Z,4.82
2023-05-04T12:09:09.082Z,4.84
2023-05-04T12:10:09.048Z,5.03
2023-05-04T12:11:09.063Z,4.94
2023-05-04T12:12:09.029Z,4.97
2023-05-04T12:13:09.021Z,4.97
2023-05-04T12:14:09.048Z,4.90
2023-05-04T12:15:09.197Z,4.98
2023-05-04T12:16:09.072Z,5.02
2023-05-04T12:17:09.022Z,5.00
2023-05-04T12:18:09.083Z,4.98
2023-05-04T12:19:09.022Z,5.01
2023-05-04T12:20:08.994Z,5.02
2023-05-04T12:21:08.990Z,4.91
2023-05-04T12:22:09.000Z,4.98
2023-05-04T12:23:09.074Z,4.99
2023-05-04T12:24:09.013Z,4.96
2023-05-04T12:25:09.287Z,5.00
2023-05-04T12:26:09.027Z,5.05
2023-05-04T12:27:09.043Z,4.87
2023-05-04T12:28:09.026Z,4.86
2023-05-04T12:29:09.198Z,4.84
2023-05-04T12:30:09.008Z,4.98
2023-05-04T12:31:09.173Z,4.90
2023-05-04T12:32:09.167Z,4.90
2023-05-04T12:33:09.056Z,4.92
2023-05-04T12:34:09.080Z,4.86
2023-05-04T12:35:09.248Z,4.91
2023-05-04T12:36:09.081Z,4.82
2023-05-04T12:37:09.125Z,4.93
2023-05-04T12:38:09.130Z,5.05
2023-05-04T12:39:09.191Z,4.93
2023-05-04T12:40:21.128Z,4.82
2023-05-04T12:41:10.141Z,4.83
2023-05-04T12:42:09.144Z,4.85
2023-05-04T12:43:09.117Z,4.83
2023-05-04T12:44:09.134Z,4.96
2023-05-04T12:45:09.127Z,4.89
2023-05-04T12:46:09.162Z,4.92
2023-05-04T12:47:09.093Z,4.82
2023-05-04T12:48:09.104Z,4.81
2023-05-04T12:49:09.105Z,4.72
2023-05-04T12:50:09.092Z,4.81
2023-05-04T12:51:09.103Z,4.66
2023-05-04T12:52:09.068Z,4.61
2023-05-04T12:53:09.063Z,5.77
2023-05-04T12:54:09.081Z,8.20
2023-05-04T12:55:09.158Z,12.36
2023-05-04T12:56:09.063Z,30.01
2023-05-04T12:57:09.038Z,30.43
2023-05-04T12:58:09.029Z,29.15
2023-05-04T12:59:09.053Z,27.66
2023-05-04T13:00:09.059Z,29.58
2023-05-04T13:01:09.099Z,33.50
2023-05-04T13:02:09.090Z,38.10
2023-05-04T13:03:09.246Z,44.34
2023-05-04T13:04:09.183Z,49.83
2023-05-04T13:05:09.242Z,56.89
2023-05-04T13:06:09.264Z,63.42
2023-05-04T13:07:09.295Z,65.24
2023-05-04T13:08:09.365Z,67.74
2023-05-04T13:09:09.433Z,78.70
2023-05-04T13:10:09.778Z,68.72
2023-05-04T13:11:09.549Z,65.57
2023-05-04T13:12:09.548Z,69.19
2023-05-04T13:13:09.630Z,68.02
2023-05-04T13:14:09.629Z,66.07
2023-05-04T13:15:09.685Z,61.06